Time;durP1;ratioP1;P1;durP2;ratioP2;P2;SDS_P1;SDS_P2;PMS_P1;PMS_P2;Temp;Humidity;BMP_temperature;BMP_pressure;BME280_temperature;BME280_humidity;BME280_pressure;Samples;Min_cycle;Max_cycle;Signal;HPM_P1;HPM_P2
2022/06/06 00:02:24;;;;;;;0.70;0.30;;;;;;;13.01;100.00;99776.69;7385570;19;20024;-81
2022/06/06 00:04:50;;;;;;;1.45;0.43;;;;;;;13.03;100.00;99774.16;7387123;19;20011;-80
2022/06/06 00:07:17;;;;;;;0.73;0.50;;;;;;;13.03;100.00;99770.59;7389778;19;20014;-81
2022/06/06 00:09:43;;;;;;;3.92;1.13;;;;;;;13.05;100.00;99760.47;7388700;19;20029;-81
2022/06/06 00:12:09;;;;;;;0.45;0.45;;;;;;;13.04;100.00;99761.69;7387811;19;20366;-81
2022/06/06 00:14:35;;;;;;;0.30;0.30;;;;;;;13.13;100.00;99758.75;7386562;19;20622;-81
2022/06/06 00:17:01;;;;;;;0.38;0.35;;;;;;;13.17;100.00;99753.72;7387871;19;20014;-81
2022/06/06 00:19:28;;;;;;;0.77;0.55;;;;;;;13.21;100.00;99748.66;7387096;19;20023;-81
2022/06/06 00:21:54;;;;;;;1.05;0.30;;;;;;;13.20;100.00;99752.72;7388539;19;20022;-81
2022/06/06 00:24:21;;;;;;;0.47;0.47;;;;;;;13.19;100.00;99740.00;7385675;19;20407;-81
2022/06/06 00:26:47;;;;;;;0.50;0.40;;;;;;;13.18;100.00;99743.28;7388355;19;20108;-81
2022/06/06 00:29:16;;;;;;;1.02;0.43;;;;;;;13.21;100.00;99742.31;7388031;19;20657;-81
2022/06/06 00:37:13;;;;;;;0.70;0.40;;;;;;;13.14;100.00;99728.78;7387680;19;20494;-81
2022/06/06 00:39:42;;;;;;;0.73;0.70;;;;;;;13.05;100.00;99724.13;7385663;19;20014;-81
2022/06/06 00:42:31;;;;;;;0.68;0.55;;;;;;;13.12;100.00;99729.28;7384653;19;20723;-81
2022/06/06 00:45:15;;;;;;;0.90;0.50;;;;;;;13.09;100.00;99724.66;7388239;19;20024;-81
2022/06/06 00:47:44;;;;;;;0.73;0.52;;;;;;;13.11;100.00;99716.56;7397073;19;20440;-81
2022/06/06 00:50:19;;;;;;;0.80;0.30;;;;;;;13.09;100.00;99724.66;7395067;19;20017;-81
2022/06/06 00:52:49;;;;;;;1.48;0.63;;;;;;;13.06;100.00;99720.06;7395725;19;20038;-81
2022/06/06 00:55:27;;;;;;;1.95;1.17;;;;;;;12.92;100.00;99721.72;7393633;19;20029;-81
2022/06/06 00:58:01;;;;;;;1.13;0.63;;;;;;;12.92;100.00;99712.56;7392939;19;20019;-81
2022/06/06 01:00:27;;;;;;;2.75;0.63;;;;;;;12.91;100.00;99713.81;7391944;19;20040;-81
2022/06/06 01:02:57;;;;;;;1.50;0.52;;;;;;;12.90;100.00;99707.47;7393101;19;20018;-81
2022/06/06 01:05:25;;;;;;;2.65;0.85;;;;;;;12.89;100.00;99705.16;7394647;19;20906;-81
2022/06/06 01:07:51;;;;;;;2.78;1.05;;;;;;;12.89;100.00;99705.16;7394118;19;20013;-81
2022/06/06 01:10:18;;;;;;;1.35;1.08;;;;;;;12.92;100.00;99704.16;7396887;19;20014;-81
2022/06/06 01:12:48;;;;;;;0.75;0.50;;;;;;;12.99;100.00;99694.56;7394560;19;20018;-81
2022/06/06 01:15:17;;;;;;;4.22;1.15;;;;;;;12.94;100.00;99696.81;7395521;19;20018;-81
2022/06/06 01:17:54;;;;;;;1.88;0.95;;;;;;;12.97;100.00;99695.06;7395724;19;20077;-81
2022/06/06 01:20:54;;;;;;;4.78;1.33;;;;;;;12.98;100.00;99690.22;7393328;19;20014;-81
2022/06/06 01:23:39;;;;;;;4.43;1.52;;;;;;;13.02;100.00;99691.53;7392584;19;20015;-81
2022/06/06 01:26:20;;;;;;;6.30;1.02;;;;;;;13.04;100.00;99691.81;7393045;19;20006;-81
2022/06/06 01:28:52;;;;;;;;;;;;;;;13.02;100.00;99697.13;7392241;19;20041;-81
2022/06/06 01:31:44;;;;;;;1.08;1.00;;;;;;;12.96;100.00;99693.53;7389601;19;19925;-81
2022/06/06 01:34:19;;;;;;;7.63;1.92;;;;;;;13.01;100.00;99700.44;7389744;19;20025;-83
2022/06/06 01:36:49;;;;;;;4.85;1.05;;;;;;;13.07;100.00;99699.25;7386563;19;20018;-83
2022/06/06 01:39:15;;;;;;;2.47;1.20;;;;;;;13.03;100.00;99695.88;7394702;19;20018;-96
2022/06/06 01:42:06;;;;;;;1.30;1.13;;;;;;;13.04;100.00;99694.59;7399067;19;20038;-91
2022/06/06 01:44:56;;;;;;;2.42;1.15;;;;;;;13.02;100.00;99685.16;7398810;19;20027;-96
2022/06/06 01:47:33;;;;;;;2.22;0.60;;;;;;;12.97;100.00;99689.47;7398039;19;20022;-89
2022/06/06 01:50:00;;;;;;;1.95;0.52;;;;;;;12.96;100.00;99676.75;7416779;19;20014;-95
2022/06/06 01:52:26;;;;;;;2.45;0.98;;;;;;;12.95;100.00;99680.78;7413512;19;20030;-78
2022/06/06 01:54:55;;;;;;;0.65;0.30;;;;;;;12.97;100.00;99672.72;7416981;19;20047;-78
2022/06/06 01:57:23;;;;;;;1.08;0.98;;;;;;;12.93;100.00;99688.91;7399248;19;20010;-79
2022/06/06 01:59:51;;;;;;;0.93;0.63;;;;;;;12.89;100.00;99677.19;7390569;19;20010;-79
2022/06/06 02:02:18;;;;;;;1.58;0.85;;;;;;;12.94;100.00;99670.91;7388561;19;20034;-78
2022/06/06 02:04:45;;;;;;;1.45;0.82;;;;;;;12.97;100.00;99678.31;7393818;19;20023;-79
2022/06/06 02:07:11;;;;;;;1.92;0.77;;;;;;;13.04;100.00;99675.03;7389757;19;20025;-79
2022/06/06 02:09:37;;;;;;;1.73;0.95;;;;;;;13.06;100.00;99669.72;7392420;19;20021;-79
2022/06/06 02:12:04;;;;;;;0.95;0.60;;;;;;;13.06;100.00;99669.00;7388734;19;20014;-79
2022/06/06 02:14:30;;;;;;;1.90;1.02;;;;;;;13.04;100.00;99672.22;7392004;19;20006;-78
2022/06/06 02:16:56;;;;;;;1.25;0.95;;;;;;;13.00;100.00;99668.91;7389229;19;20032;-79
2022/06/06 02:19:22;;;;;;;1.05;0.98;;;;;;;12.97;100.00;99672.72;7389000;19;20019;-78
2022/06/06 02:21:48;;;;;;;0.77;0.75;;;;;;;13.01;100.00;99666.88;7389595;19;20037;-79
2022/06/06 02:24:14;;;;;;;3.47;0.60;;;;;;;13.00;100.00;99660.53;7389649;19;20026;-78
2022/06/06 02:26:41;;;;;;;0.35;0.25;;;;;;;13.01;100.00;99664.84;7390159;19;20022;-79
2022/06/06 02:29:07;;;;;;;1.35;1.00;;;;;;;12.95;100.00;99658.44;7391233;19;20018;-79
2022/06/06 02:31:37;;;;;;;5.10;1.40;;;;;;;12.94;100.00;99659.72;7388319;19;20061;-79
2022/06/06 02:34:05;;;;;;;0.35;0.35;;;;;;;12.84;100.00;99661.16;7390170;19;20019;-79
2022/06/06 02:36:32;;;;;;;1.52;0.70;;;;;;;12.86;100.00;99667.03;7388031;19;20018;-79
2022/06/06 02:38:58;;;;;;;1.38;0.47;;;;;;;12.87;100.00;99669.31;7387675;19;20372;-79
2022/06/06 02:41:26;;;;;;;2.50;0.65;;;;;;;12.85;100.00;99668.28;7387544;19;20010;-79
2022/06/06 02:43:52;;;;;;;1.27;0.52;;;;;;;12.82;100.00;99666.50;7390983;19;20018;-78
2022/06/06 02:46:19;;;;;;;1.23;0.80;;;;;;;12.84;100.00;99677.94;7390606;19;20014;-79
2022/06/06 02:48:45;;;;;;;0.60;0.40;;;;;;;12.89;100.00;99668.81;7390542;19;20019;-79
2022/06/06 02:51:11;;;;;;;0.65;0.65;;;;;;;12.86;100.00;99667.78;7388427;19;20456;-79
2022/06/06 02:53:37;;;;;;;1.15;1.05;;;;;;;12.89;100.00;99663.22;7390321;19;20049;-79
2022/06/06 02:56:04;;;;;;;2.65;0.82;;;;;;;12.85;100.00;99665.47;7386536;19;20026;-79
2022/06/06 02:58:30;;;;;;;0.73;0.55;;;;;;;12.84;100.00;99666.75;7386712;19;20370;-79
2022/06/06 03:01:04;;;;;;;3.58;1.13;;;;;;;12.80;100.00;99677.38;7388030;19;20559;-78
2022/06/06 03:03:31;;;;;;;2.42;1.10;;;;;;;12.79;100.00;99673.06;7389491;19;20022;-79
2022/06/06 03:06:40;;;;;;;0.68;0.47;;;;;;;12.72;100.00;99677.06;7387109;19;20412;-79
2022/06/06 03:09:32;;;;;;;4.60;0.98;;;;;;;12.58;100.00;99668.81;7389819;19;20037;-79
2022/06/06 03:12:13;;;;;;;0.77;0.77;;;;;;;12.57;100.00;99661.69;7388591;19;20023;-78
2022/06/06 03:14:55;;;;;;;3.25;0.73;;;;;;;12.52;100.00;99665.94;7392109;19;20019;-79
2022/06/06 03:20:47;;;;;;;2.30;0.95;;;;;;;12.37;100.00;99659.69;7390683;19;20028;-79
2022/06/06 03:23:13;;;;;;;1.20;0.65;;;;;;;12.38;100.00;99660.47;7388780;19;20017;-79
2022/06/06 03:26:01;;;;;;;7.07;0.77;;;;;;;12.33;100.00;99664.75;7385738;19;20366;-78
2022/06/06 03:28:30;;;;;;;5.65;1.48;;;;;;;12.33;100.00;99663.97;7389102;19;20033;-80
2022/06/06 03:31:21;;;;;;;1.40;0.32;;;;;;;12.35;100.00;99664.25;7388956;19;20022;-78
2022/06/06 03:34:08;;;;;;;3.90;0.98;;;;;;;12.34;100.00;99662.72;7389866;19;20014;-78
2022/06/06 03:36:40;;;;;;;2.30;0.70;;;;;;;12.41;100.00;99660.25;7385597;19;20462;-79
2022/06/06 03:39:13;;;;;;;0.98;0.47;;;;;;;12.36;100.00;99657.41;7386826;19;20484;-79
2022/06/06 03:42:08;;;;;;;2.50;0.65;;;;;;;12.50;100.00;99662.09;7386718;19;20018;-78
2022/06/06 03:44:46;;;;;;;3.60;0.95;;;;;;;12.64;100.00;99655.66;7387972;19;20022;-79
2022/06/06 03:47:33;;;;;;;1.23;0.90;;;;;;;12.68;100.00;99653.41;7388220;19;20022;-79
2022/06/06 03:50:06;;;;;;;1.90;0.80;;;;;;;12.53;100.00;99661.91;7388002;19;20027;-78
2022/06/06 03:52:50;;;;;;;4.78;1.75;;;;;;;12.49;100.00;99660.59;7386716;19;20021;-79
2022/06/06 03:55:19;;;;;;;3.70;1.33;;;;;;;12.62;100.00;99658.94;7386872;19;20027;-79
2022/06/06 03:57:48;;;;;;;0.57;0.28;;;;;;;12.63;100.00;99660.47;7387818;19;20018;-78
2022/06/06 04:00:15;;;;;;;1.02;0.98;;;;;;;12.64;100.00;99661.25;7385005;19;20024;-78
2022/06/06 04:02:45;;;;;;;1.10;0.70;;;;;;;12.66;100.00;99664.31;7383873;19;20033;-78
2022/06/06 04:05:15;;;;;;;0.30;0.20;;;;;;;12.63;100.00;99659.69;7386626;19;20018;-79
2022/06/06 04:07:41;;;;;;;0.50;0.50;;;;;;;12.61;100.00;99670.59;7386869;19;20025;-79
2022/06/06 04:10:09;;;;;;;1.02;0.90;;;;;;;12.59;100.00;99659.16;7387581;19;20015;-79
2022/06/06 04:12:59;;;;;;;0.63;0.55;;;;;;;12.57;100.00;99667.25;7386574;19;20014;-79
2022/06/06 04:15:29;;;;;;;3.47;1.20;;;;;;;12.44;100.00;99664.84;7389225;19;20021;-78
2022/06/06 04:18:07;;;;;;;0.95;0.65;;;;;;;12.37;100.00;99670.09;7386206;19;20041;-79
2022/06/06 04:20:40;;;;;;;0.70;0.63;;;;;;;12.29;100.00;99666.22;7389170;19;20041;-77
2022/06/06 04:23:06;;;;;;;1.83;1.08;;;;;;;12.38;100.00;99671.66;7385979;19;20549;-77
2022/06/06 04:25:44;;;;;;;3.55;0.75;;;;;;;12.41;100.00;99676.25;7388012;19;20074;-79
2022/06/06 04:28:26;;;;;;;1.30;0.65;;;;;;;12.44;100.00;99681.63;7385905;19;20018;-79
2022/06/06 04:31:28;;;;;;;3.72;0.75;;;;;;;12.45;100.00;99680.34;7385748;19;20492;-79
2022/06/06 04:34:03;;;;;;;1.92;0.77;;;;;;;12.52;100.00;99684.72;7388240;19;20398;-79
2022/06/06 04:36:29;;;;;;;1.98;1.05;;;;;;;12.51;100.00;99681.19;7383596;19;20132;-79
2022/06/06 04:39:16;;;;;;;0.82;0.65;;;;;;;12.55;100.00;99686.53;7382323;19;20771;-79
2022/06/06 04:41:52;;;;;;;1.98;0.90;;;;;;;12.51;100.00;99686.00;7385189;19;20022;-79
2022/06/06 04:44:48;;;;;;;2.17;0.88;;;;;;;12.51;100.00;99686.00;7386317;19;20046;-79
2022/06/06 04:47:35;;;;;;;2.17;0.73;;;;;;;12.51;100.00;99686.00;7384170;19;20480;-80
2022/06/06 04:50:06;;;;;;;1.67;0.43;;;;;;;12.42;100.00;99683.38;7404763;19;20482;-79
2022/06/06 04:52:36;;;;;;;1.48;1.10;;;;;;;12.28;100.00;99695.41;7391884;19;20013;-80
2022/06/06 04:55:04;;;;;;;4.70;2.13;;;;;;;12.29;100.00;99694.13;7389716;19;20031;-79
2022/06/06 04:57:31;;;;;;;3.17;1.30;;;;;;;12.30;100.00;99690.84;7385250;19;20015;-79
2022/06/06 04:59:59;;;;;;;1.38;0.80;;;;;;;12.35;100.00;99695.72;7385130;19;20475;-80
2022/06/06 05:02:26;;;;;;;3.20;1.45;;;;;;;12.31;100.00;99689.59;7384601;19;20042;-79
2022/06/06 05:04:52;;;;;;;2.92;1.02;;;;;;;12.19;100.00;99697.06;7388965;19;20033;-79
2022/06/06 05:07:39;;;;;;;2.03;1.25;;;;;;;12.14;100.00;99703.38;7385040;19;20013;-79
2022/06/06 05:10:43;;;;;;;5.45;1.23;;;;;;;12.11;100.00;99695.19;7383299;19;20107;-79
2022/06/06 05:13:24;;;;;;;4.30;1.33;;;;;;;12.15;100.00;99704.91;7384979;19;20369;-79
2022/06/06 05:16:28;;;;;;;4.30;1.25;;;;;;;12.22;100.00;99700.16;7389505;19;20026;-79
2022/06/06 05:19:13;;;;;;;1.80;1.50;;;;;;;12.44;100.00;99703.19;7382542;19;20019;-79
2022/06/06 05:21:39;;;;;;;1.42;0.47;;;;;;;12.44;100.00;99697.59;7384646;19;20011;-79
2022/06/06 05:24:17;;;;;;;2.72;0.90;;;;;;;12.47;100.00;99699.41;7385683;19;20018;-79
2022/06/06 05:27:02;;;;;;;5.70;1.10;;;;;;;12.54;100.00;99708.13;7382196;19;20031;-79
2022/06/06 05:29:28;;;;;;;3.55;1.58;;;;;;;12.55;100.00;99695.69;7382011;19;20018;-79
2022/06/06 05:32:13;;;;;;;3.88;1.95;;;;;;;12.60;100.00;99699.81;7384110;19;20019;-79
2022/06/06 05:34:42;;;;;;;6.13;2.10;;;;;;;12.58;100.00;99702.31;7392964;19;20015;-78
2022/06/06 05:37:17;;;;;;;1.33;0.95;;;;;;;12.50;100.00;99707.56;7393228;19;20023;-79
2022/06/06 05:40:07;;;;;;;1.45;0.95;;;;;;;12.39;100.00;99706.72;7392860;19;20086;-79
2022/06/06 05:43:01;;;;;;;0.90;0.60;;;;;;;12.31;100.00;99700.00;7390113;19;20018;-79
2022/06/06 05:45:49;;;;;;;2.95;1.42;;;;;;;12.32;100.00;99705.09;7393529;19;20338;-79
2022/06/06 05:48:22;;;;;;;1.73;1.00;;;;;;;12.40;100.00;99708.22;7390275;19;20078;-79
2022/06/06 05:51:03;;;;;;;2.55;1.08;;;;;;;12.40;100.00;99713.81;7392121;19;20010;-79
2022/06/06 05:53:40;;;;;;;4.13;1.30;;;;;;;12.56;100.00;99710.44;7391738;19;20125;-79
2022/06/06 05:56:12;;;;;;;1.38;1.27;;;;;;;12.53;100.00;99711.41;7390374;19;20022;-78
2022/06/06 05:59:02;;;;;;;1.75;0.82;;;;;;;12.53;100.00;99711.41;7391325;19;20037;-78
2022/06/06 06:02:02;;;;;;;0.35;0.35;;;;;;;12.58;100.00;99702.31;7390351;19;20015;-78
2022/06/06 06:04:34;;;;;;;0.85;0.82;;;;;;;12.63;100.00;99704.38;7392739;19;20057;-78
2022/06/06 06:07:12;;;;;;;0.95;0.50;;;;;;;12.64;100.00;99703.91;7387722;19;20025;-79
2022/06/06 06:09:57;;;;;;;1.60;0.57;;;;;;;12.67;100.00;99700.13;7386774;19;20015;-79
2022/06/06 06:12:45;;;;;;;2.78;1.20;;;;;;;12.78;100.00;99696.66;7387304;19;20052;-78
2022/06/06 06:15:17;;;;;;;1.17;0.80;;;;;;;12.81;100.00;99701.28;7389108;19;20488;-79
2022/06/06 06:17:48;;;;;;;1.77;1.00;;;;;;;12.81;100.00;99704.84;7390647;19;20092;-78
2022/06/06 06:20:22;;;;;;;0.70;0.60;;;;;;;12.84;100.00;99708.69;7392938;19;20014;-79
2022/06/06 06:22:55;;;;;;;0.68;0.60;;;;;;;12.89;100.00;99702.34;7390407;19;20022;-79
2022/06/06 06:25:23;;;;;;;0.52;0.52;;;;;;;12.92;100.00;99699.34;7389180;19;20019;-78
2022/06/06 06:27:51;;;;;;;0.65;0.50;;;;;;;12.99;100.00;99700.94;7389723;19;20019;-78
2022/06/06 06:30:17;;;;;;;0.75;0.73;;;;;;;13.03;100.00;99704.25;7389725;19;20074;-79
2022/06/06 06:33:27;;;;;;;0.75;0.60;;;;;;;13.11;100.00;99699.78;7391216;19;20029;-79
2022/06/06 06:35:59;;;;;;;0.43;0.20;;;;;;;13.12;100.00;99700.53;7386573;19;20015;-78
2022/06/06 06:39:01;;;;;;;1.77;0.32;;;;;;;13.18;100.00;99702.13;7388479;19;20051;-80
2022/06/06 06:41:50;;;;;;;0.45;0.30;;;;;;;13.31;100.00;99702.47;7389013;19;20026;-78
2022/06/06 06:44:29;;;;;;;1.80;0.63;;;;;;;13.41;100.00;99700.22;7386885;19;20022;-80
2022/06/06 06:46:58;;;;;;;1.83;1.13;;;;;;;13.50;100.00;99709.22;7388429;19;20560;-79
2022/06/06 06:49:39;;;;;;;2.08;0.70;;;;;;;13.31;100.00;99705.28;7387573;19;20491;-79
2022/06/06 06:52:20;;;;;;;;;;;;;;;13.46;100.00;99708.69;7388797;19;20034;-78
2022/06/06 06:54:58;;;;;;;0.75;0.70;;;;;;;13.56;100.00;99715.59;7391567;19;19925;-79
2022/06/06 06:57:43;;;;;;;0.63;0.52;;;;;;;13.64;100.00;99716.66;7387930;19;20037;-78
2022/06/06 07:00:17;;;;;;;0.45;0.40;;;;;;;13.65;100.00;99721.00;7388426;19;20507;-79
2022/06/06 07:09:10;;;;;;;0.70;0.65;;;;;;;13.73;100.00;99728.94;7391767;19;20022;-79
2022/06/06 07:11:42;;;;;;;0.43;0.32;;;;;;;13.72;100.00;99741.38;7392960;19;20019;-79
2022/06/06 07:14:27;;;;;;;1.73;0.30;;;;;;;13.61;100.00;99728.88;7388992;19;20018;-79
2022/06/06 07:16:58;;;;;;;0.50;0.50;;;;;;;13.58;100.00;99743.84;7389801;19;20018;-79
2022/06/06 07:19:32;;;;;;;1.75;0.47;;;;;;;13.53;100.00;99736.19;7392483;19;20038;-79
2022/06/06 07:22:02;;;;;;;0.45;0.10;;;;;;;13.54;100.00;99734.91;7391845;19;20476;-78
2022/06/06 07:24:28;;;;;;;1.42;0.20;;;;;;;13.58;100.00;99729.09;7388729;19;20023;-79
2022/06/06 07:26:58;;;;;;;0.60;0.40;;;;;;;13.59;100.00;99739.78;7391987;19;20024;-79
2022/06/06 07:29:24;;;;;;;3.50;0.43;;;;;;;13.52;100.00;99734.66;7387444;19;20074;-79
2022/06/06 07:32:06;;;;;;;1.45;0.75;;;;;;;13.65;100.00;99743.38;7386359;19;20051;-79
2022/06/06 07:34:51;;;;;;;1.48;0.50;;;;;;;13.68;100.00;99747.22;7390628;19;20045;-78
2022/06/06 07:37:29;;;;;;;0.93;0.82;;;;;;;13.65;100.00;99748.22;7388173;19;20045;-78
2022/06/06 07:40:04;;;;;;;0.63;0.40;;;;;;;13.82;100.00;99745.53;7387768;19;20029;-78
2022/06/06 07:43:04;;;;;;;1.20;0.85;;;;;;;13.81;100.00;99744.00;7388509;19;20015;-78
2022/06/06 07:45:33;;;;;;;1.55;0.68;;;;;;;13.83;100.00;99747.81;7389719;19;20025;-78
2022/06/06 07:48:14;;;;;;;2.10;0.55;;;;;;;13.94;100.00;99752.72;7392381;19;20024;-78
2022/06/06 07:51:26;;;;;;;3.40;0.40;;;;;;;14.01;100.00;99753.00;7410625;19;20043;-78
2022/06/06 07:54:17;;;;;;;1.70;0.65;;;;;;;14.10;100.00;99750.00;7393815;19;20018;-78
2022/06/06 07:56:52;;;;;;;0.40;0.40;;;;;;;14.19;100.00;99746.19;7389373;19;20015;-78
2022/06/06 07:59:31;;;;;;;0.85;0.50;;;;;;;14.29;100.00;99750.38;7386423;19;20044;-78
2022/06/06 08:02:12;;;;;;;0.47;0.40;;;;;;;14.40;100.00;99747.63;7386706;19;20022;-79
2022/06/06 08:05:16;;;;;;;1.85;0.50;;;;;;;14.44;100.00;99745.31;7388655;19;20018;-78
2022/06/06 08:07:56;;;;;;;2.42;0.40;;;;;;;14.50;100.00;99743.31;7385028;19;20023;-78
2022/06/06 08:10:28;;;;;;;0.43;0.43;;;;;;;14.45;100.00;99746.84;7386415;19;20028;-78
2022/06/06 08:13:11;;;;;;;1.13;0.80;;;;;;;14.46;100.00;99748.38;7386236;19;20011;-78
2022/06/06 08:16:13;;;;;;;0.57;0.30;;;;;;;14.47;100.00;99744.31;7389725;19;20475;-78
2022/06/06 08:19:00;;;;;;;0.43;0.43;;;;;;;14.43;100.00;99744.56;7387127;19;20507;-76
2022/06/06 08:21:36;;;;;;;2.15;0.55;;;;;;;14.53;100.00;99739.47;7386967;19;20022;-76
2022/06/06 08:24:08;;;;;;;1.23;0.50;;;;;;;14.70;100.00;99747.94;7388302;19;20022;-76
2022/06/06 08:26:41;;;;;;;0.82;0.40;;;;;;;14.65;100.00;99749.47;7386122;19;20022;-77
2022/06/06 08:29:09;;;;;;;21.52;1.63;;;;;;;14.57;100.00;99753.25;7385512;19;20018;-76
2022/06/06 08:31:36;;;;;;;0.82;0.47;;;;;;;14.55;100.00;99750.19;7385963;19;20047;-76
2022/06/06 08:34:03;;;;;;;0.95;0.40;;;;;;;14.54;100.00;99749.44;7389025;19;20022;-76
2022/06/06 08:36:51;;;;;;;0.30;0.30;;;;;;;14.56;100.00;99749.69;7387456;19;20034;-76
2022/06/06 08:39:36;;;;;;;0.43;0.30;;;;;;;14.64;100.00;99752.78;7384507;19;20007;-76
2022/06/06 08:42:23;;;;;;;0.38;0.38;;;;;;;14.65;100.00;99755.06;7387873;19;20341;-76
2022/06/06 08:45:26;;;;;;;0.40;0.32;;;;;;;14.60;100.00;99755.81;7387817;19;20059;-76
2022/06/06 08:48:14;;;;;;;2.08;0.30;;;;;;;14.60;100.00;99757.84;7383181;19;20804;-76
2022/06/06 08:51:05;;;;;;;0.45;0.10;;;;;;;14.54;100.00;99760.63;7383615;19;20361;-76
2022/06/06 08:54:02;;;;;;;10.02;1.55;;;;;;;14.47;100.00;99761.13;7384098;19;20045;-76
2022/06/06 08:57:09;;;;;;;0.80;0.65;;;;;;;14.43;100.00;99760.59;7385435;19;20026;-76
2022/06/06 08:59:51;;;;;;;0.93;0.82;;;;;;;14.40;100.00;99750.41;7384297;19;20015;-76
2022/06/06 09:02:36;;;;;;;0.40;0.40;;;;;;;14.41;100.00;99760.34;7384034;19;20019;-76
2022/06/06 09:05:26;;;;;;;0.25;0.25;;;;;;;14.38;100.00;99756.50;7384964;19;20021;-76
2022/06/06 09:08:07;;;;;;;0.80;0.43;;;;;;;14.37;100.00;99762.63;7390338;19;20114;-75
2022/06/06 09:10:48;;;;;;;1.20;0.50;;;;;;;14.49;100.00;99752.97;7391324;19;20021;-75
2022/06/06 09:13:35;;;;;;;0.75;0.57;;;;;;;14.57;100.00;99754.03;7390626;19;20460;-77
2022/06/06 09:16:51;;;;;;;2.78;0.65;;;;;;;14.71;100.00;99753.03;7395871;19;20364;-76
2022/06/06 09:19:20;;;;;;;0.95;0.38;;;;;;;14.85;100.00;99752.06;7393972;19;20090;-76
2022/06/06 09:22:04;;;;;;;0.82;0.45;;;;;;;15.06;100.00;99750.53;7390391;19;20019;-76
2022/06/06 09:24:56;;;;;;;0.80;0.25;;;;;;;15.23;100.00;99746.97;7394456;19;20018;-76
2022/06/06 09:27:38;;;;;;;0.93;0.52;;;;;;;15.31;100.00;99754.34;7388238;19;20051;-76
2022/06/06 09:30:18;;;;;;;0.70;0.40;;;;;;;15.33;100.00;99756.69;7389086;19;20022;-76
2022/06/06 09:32:50;;;;;;;2.30;0.57;;;;;;;15.26;100.00;99763.56;7390264;19;20025;-76
2022/06/06 09:35:31;;;;;;;4.80;0.40;;;;;;;15.32;100.00;99761.50;7390640;19;20247;-76
2022/06/06 09:38:53;;;;;;;2.13;0.30;;;;;;;15.33;100.00;99767.91;7388523;19;20060;-76
2022/06/06 09:42:00;;;;;;;0.47;0.38;;;;;;;15.38;100.00;99764.31;7387884;19;20017;-76
2022/06/06 09:44:42;;;;;;;1.05;0.32;;;;;;;15.34;100.00;99761.00;7391897;19;20035;-76
2022/06/06 09:47:37;;;;;;;1.88;0.40;;;;;;;15.30;100.00;99763.28;7386862;19;20015;-76
2022/06/06 09:50:22;;;;;;;1.05;0.38;;;;;;;15.34;100.00;99758.97;7385210;19;20014;-76
2022/06/06 09:52:48;;;;;;;0.63;0.30;;;;;;;15.43;100.00;99749.50;7388736;19;20023;-76
2022/06/06 10:01:34;;;;;;;1.33;0.73;;;;;;;15.83;100.00;99754.59;7390680;19;20018;-76
2022/06/06 10:04:00;;;;;;;1.75;0.70;;;;;;;16.06;100.00;99739.22;7392696;19;20144;-76
2022/06/06 10:06:48;;;;;;;0.38;0.25;;;;;;;16.31;100.00;99742.94;7388567;19;20010;-76
2022/06/06 10:09:26;;;;;;;1.50;0.40;;;;;;;16.70;100.00;99735.09;7387586;19;20026;-76
2022/06/06 10:12:20;;;;;;;2.83;0.60;;;;;;;17.12;100.00;99742.22;7390131;19;20022;-76
2022/06/06 10:14:59;;;;;;;0.70;0.43;;;;;;;17.38;100.00;99728.44;7392818;19;20047;-76
2022/06/06 10:17:32;;;;;;;0.90;0.43;;;;;;;17.64;100.00;99725.91;7390651;19;20019;-77
2022/06/06 10:20:20;;;;;;;1.85;0.60;;;;;;;18.00;100.00;99735.00;7390029;19;20034;-76
2022/06/06 10:23:11;;;;;;;0.20;0.20;;;;;;;18.14;100.00;99725.38;7389901;19;20014;-76
2022/06/06 10:25:40;;;;;;;1.75;0.25;;;;;;;18.33;100.00;99728.19;7387288;19;20022;-76
2022/06/06 10:28:23;;;;;;;1.50;0.32;;;;;;;18.28;100.00;99726.22;7391424;19;20444;-76
2022/06/06 10:31:20;;;;;;;0.55;0.50;;;;;;;18.03;100.00;99728.31;7390841;19;20014;-76
2022/06/06 10:34:04;;;;;;;0.85;0.30;;;;;;;17.93;100.00;99724.34;7390978;19;20014;-76
2022/06/06 10:37:12;;;;;;;0.45;0.22;;;;;;;17.90;100.00;99728.97;7390906;19;20041;-76
2022/06/06 10:39:55;;;;;;;2.15;0.20;;;;;;;17.52;100.00;99730.13;7388660;19;20033;-76
2022/06/06 10:42:28;;;;;;;0.88;0.20;;;;;;;17.38;100.00;99725.63;7388436;19;20023;-77
2022/06/06 10:45:02;;;;;;;0.35;0.28;;;;;;;17.37;100.00;99732.53;7392350;19;20467;-76
2022/06/06 10:47:51;;;;;;;1.05;0.20;;;;;;;17.36;100.00;99734.59;7387350;19;20037;-76
2022/06/06 10:54:14;;;;;;;1.55;0.47;;;;;;;17.48;100.00;99734.50;7401414;19;20088;-77
2022/06/06 10:56:41;;;;;;;0.70;0.30;;;;;;;17.54;100.00;99743.69;7395651;19;20367;-76
2022/06/06 10:59:28;;;;;;;0.35;0.10;;;;;;;17.56;100.00;99741.09;7389330;19;20057;-76
2022/06/06 11:02:19;;;;;;;2.25;0.55;;;;;;;17.67;100.00;99746.63;7389401;19;20536;-76
2022/06/06 11:05:11;;;;;;;0.40;0.30;;;;;;;17.82;100.00;99733.66;7391133;19;20014;-77
2022/06/06 11:08:14;;;;;;;2.17;0.40;;;;;;;17.72;100.00;99743.75;7386777;19;20018;-76
2022/06/06 11:10:46;;;;;;;0.25;0.10;;;;;;;17.86;100.00;99741.81;7386008;19;20045;-76
2022/06/06 11:13:26;;;;;;;0.45;0.30;;;;;;;17.70;100.00;99743.53;7386919;19;20368;-76
2022/06/06 11:16:04;;;;;;;0.10;0.10;;;;;;;17.55;100.00;99748.78;7392072;19;20026;-76
2022/06/06 11:18:48;;;;;;;2.50;0.55;;;;;;;17.45;100.00;99753.94;7389367;19;20018;-76
2022/06/06 11:21:20;;;;;;;1.92;0.20;;;;;;;17.48;100.00;99748.59;7390143;19;20779;-76
2022/06/06 11:23:56;;;;;;;0.65;0.40;;;;;;;17.47;100.00;99749.88;7390623;19;20018;-76
2022/06/06 11:26:31;;;;;;;0.57;0.20;;;;;;;17.47;100.00;99753.44;7386409;19;20705;-76
2022/06/06 11:29:25;;;;;;;1.90;0.52;;;;;;;17.48;100.00;99752.16;7384869;19;20011;-76
2022/06/06 11:32:11;;;;;;;0.95;0.40;;;;;;;17.54;100.00;99754.94;7384155;19;20391;-76
2022/06/06 11:34:46;;;;;;;2.15;0.98;;;;;;;17.43;100.00;99750.16;7387388;19;20039;-76
2022/06/06 11:37:23;;;;;;;0.68;0.30;;;;;;;17.42;100.00;99752.22;7389121;19;20025;-76
2022/06/06 11:40:07;;;;;;;0.60;0.40;;;;;;;17.36;100.00;99756.34;7389170;19;20018;-76
2022/06/06 11:42:54;;;;;;;0.40;0.15;;;;;;;17.35;100.00;99746.38;7388935;19;20074;-76
2022/06/06 11:45:49;;;;;;;1.52;0.40;;;;;;;17.26;100.00;99752.34;7388755;19;20517;-76
2022/06/06 11:48:15;;;;;;;1.38;0.52;;;;;;;17.07;100.00;99757.09;7386281;19;20040;-76
2022/06/06 11:51:19;;;;;;;2.17;0.68;;;;;;;16.95;100.00;99758.47;7386205;19;20039;-76
2022/06/06 11:54:18;;;;;;;1.65;0.20;;;;;;;16.82;100.00;99755.47;7389316;19;20011;-76
2022/06/06 11:57:22;;;;;;;1.05;0.60;;;;;;;16.72;100.00;99755.00;7389259;19;20014;-76
2022/06/06 12:00:04;;;;;;;2.35;0.77;;;;;;;16.76;100.00;99754.75;7387180;19;20019;-76
2022/06/06 12:02:58;;;;;;;0.65;0.30;;;;;;;16.84;100.00;99750.88;7385952;19;20042;-76
2022/06/06 12:06:19;;;;;;;2.00;0.60;;;;;;;16.85;100.00;99746.00;7386927;19;20022;-75
2022/06/06 12:08:54;;;;;;;0.43;0.43;;;;;;;16.79;100.00;99739.63;7383830;19;20397;-76
2022/06/06 12:11:42;;;;;;;0.47;0.25;;;;;;;16.87;100.00;99749.81;7384571;19;20331;-76
2022/06/06 12:14:08;;;;;;;3.67;1.52;;;;;;;17.03;100.00;99748.16;7389034;19;20710;-76
2022/06/06 12:16:44;;;;;;;1.90;0.88;;;;;;;17.26;100.00;99746.72;7388326;19;20124;-76
2022/06/06 12:19:35;;;;;;;2.15;0.90;;;;;;;17.46;100.00;99751.91;7386834;19;20018;-78
2022/06/06 12:22:32;;;;;;;0.55;0.20;;;;;;;17.69;100.00;99750.47;7390346;19;20396;-76
2022/06/06 12:25:36;;;;;;;0.38;0.38;;;;;;;17.75;100.00;99751.16;7387162;19;20387;-75
2022/06/06 12:28:05;;;;;;;0.80;0.20;;;;;;;17.63;100.00;99752.53;7383182;19;20023;-76
2022/06/06 12:30:43;;;;;;;1.05;0.30;;;;;;;17.43;100.00;99750.16;7387652;19;20038;-77
2022/06/06 12:33:25;;;;;;;2.53;0.50;;;;;;;17.37;100.00;99757.88;7384264;19;20027;-81
2022/06/06 12:36:14;;;;;;;3.80;0.63;;;;;;;17.28;100.00;99758.22;7387715;19;20019;-82
2022/06/06 12:38:49;;;;;;;1.33;0.30;;;;;;;17.18;100.00;99759.81;7387687;19;20408;-82
2022/06/06 12:41:18;;;;;;;1.10;0.73;;;;;;;17.14;100.00;99750.91;7391990;19;20017;-82
2022/06/06 12:43:56;;;;;;;2.15;0.55;;;;;;;17.07;100.00;99751.47;7391861;19;20031;-80
2022/06/06 12:46:51;;;;;;;1.55;0.50;;;;;;;17.02;100.00;99749.47;7390698;19;20019;-79